<?xml version="1.0" encoding="UTF-8"?>
<gpx
  version="1.0"
  creator="GPSBabel - http://www.gpsbabel.org"
  xmlns:xsi="http://www.w3.org/2001/XMLSchema-instance"
  xmlns="http://www.topografix.com/GPX/1/0"
  xsi:schemaLocation="http://www.topografix.com/GPX/1/0 http://www.topografix.com/GPX/1/0/gpx.xsd">
<time>2011-07-04T21:08:24Z</time>
<bounds minlat="32.718669891" minlon="35.047008514" maxlat="32.752014160" maxlon="35.077247620"/>
<trk>
  <name>Holux2011/07/04_19:41</name>
<trkseg>
<trkpt lat="32.751716614" lon="35.047103882">
  <ele>363.572754</ele>
  <time>2011-07-04T16:41:02Z</time>
  <speed>0.090000</speed>
</trkpt>
<trkpt lat="32.751850128" lon="35.047073364">
  <ele>351.752441</ele>
  <time>2011-07-04T16:42:06Z</time>
  <speed>1.870000</speed>
</trkpt>
<trkpt lat="32.752014160" lon="35.047267914">
  <ele>354.525879</ele>
  <time>2011-07-04T16:42:21Z</time>
  <speed>2.010000</speed>
</trkpt>
<trkpt lat="32.751842499" lon="35.047500610">
  <ele>356.447754</ele>
  <time>2011-07-04T16:42:35Z</time>
  <speed>2.250000</speed>
</trkpt>
<trkpt lat="32.751674652" lon="35.047962189">
  <ele>357.916504</ele>
  <time>2011-07-04T16:42:58Z</time>
  <speed>2.460000</speed>
</trkpt>
<trkpt lat="32.751613617" lon="35.048397064">
  <ele>360.533691</ele>
  <time>2011-07-04T16:43:15Z</time>
  <speed>2.320000</speed>
</trkpt>
<trkpt lat="32.751285553" lon="35.049194336">
  <ele>366.822754</ele>
  <time>2011-07-04T16:43:50Z</time>
  <speed>2.440000</speed>
</trkpt>
<trkpt lat="32.750267029" lon="35.052436829">
  <ele>379.072754</ele>
  <time>2011-07-04T16:45:51Z</time>
  <speed>3.040000</speed>
</trkpt>
<trkpt lat="32.749942780" lon="35.053169250">
  <ele>381.314941</ele>
  <time>2011-07-04T16:46:19Z</time>
  <speed>2.580000</speed>
</trkpt>
<trkpt lat="32.749042511" lon="35.054443359">
  <ele>382.088379</ele>
  <time>2011-07-04T16:47:12Z</time>
  <speed>2.970000</speed>
</trkpt>
<trkpt lat="32.747550964" lon="35.055751801">
  <ele>383.697754</ele>
  <time>2011-07-04T16:48:17Z</time>
  <speed>5.160000</speed>
</trkpt>
<trkpt lat="32.746723175" lon="35.056098938">
  <ele>379.814941</ele>
  <time>2011-07-04T16:48:36Z</time>
  <speed>3.890000</speed>
</trkpt>
<trkpt lat="32.746017456" lon="35.056079865">
  <ele>379.291504</ele>
  <time>2011-07-04T16:48:59Z</time>
  <speed>3.260000</speed>
</trkpt>
<trkpt lat="32.745742798" lon="35.056221008">
  <ele>380.721191</ele>
  <time>2011-07-04T16:49:10Z</time>
  <speed>3.090000</speed>
</trkpt>
<trkpt lat="32.744308472" lon="35.057460785">
  <ele>374.502441</ele>
  <time>2011-07-04T16:49:49Z</time>
  <speed>7.310000</speed>
</trkpt>
<trkpt lat="32.744060516" lon="35.057842255">
  <ele>378.416504</ele>
  <time>2011-07-04T16:49:55Z</time>
  <speed>8.220000</speed>
</trkpt>
<trkpt lat="32.743251801" lon="35.058647156">
  <ele>372.549316</ele>
  <time>2011-07-04T16:50:12Z</time>
  <speed>5.970000</speed>
</trkpt>
<trkpt lat="32.742805481" lon="35.058979034">
  <ele>372.494629</ele>
  <time>2011-07-04T16:50:22Z</time>
  <speed>5.600000</speed>
</trkpt>
<trkpt lat="32.742603302" lon="35.059238434">
  <ele>371.369629</ele>
  <time>2011-07-04T16:50:28Z</time>
  <speed>5.320000</speed>
</trkpt>
<trkpt lat="32.742340088" lon="35.059402466">
  <ele>369.096191</ele>
  <time>2011-07-04T16:50:34Z</time>
  <speed>6.400000</speed>
</trkpt>
<trkpt lat="32.742065430" lon="35.059726715">
  <ele>367.643066</ele>
  <time>2011-07-04T16:50:40Z</time>
  <speed>7.840000</speed>
</trkpt>
<trkpt lat="32.741928101" lon="35.059776306">
  <ele>369.088379</ele>
  <time>2011-07-04T16:50:42Z</time>
  <speed>7.200000</speed>
</trkpt>
<trkpt lat="32.741455078" lon="35.059715271">
  <ele>370.908691</ele>
  <time>2011-07-04T16:50:49Z</time>
  <speed>7.700000</speed>
</trkpt>
<trkpt lat="32.741035461" lon="35.059169769">
  <ele>369.721191</ele>
  <time>2011-07-04T16:50:59Z</time>
  <speed>5.770000</speed>
</trkpt>
<trkpt lat="32.740711212" lon="35.059097290">
  <ele>369.979004</ele>
  <time>2011-07-04T16:51:04Z</time>
  <speed>7.610000</speed>
</trkpt>
<trkpt lat="32.740287781" lon="35.058822632">
  <ele>365.705566</ele>
  <time>2011-07-04T16:51:12Z</time>
  <speed>3.890000</speed>
</trkpt>
<trkpt lat="32.740196228" lon="35.058937073">
  <ele>364.596191</ele>
  <time>2011-07-04T16:51:15Z</time>
  <speed>4.090000</speed>
</trkpt>
<trkpt lat="32.740085602" lon="35.059383392">
  <ele>368.291504</ele>
  <time>2011-07-04T16:51:25Z</time>
  <speed>4.200000</speed>
</trkpt>
<trkpt lat="32.739849091" lon="35.059642792">
  <ele>368.760254</ele>
  <time>2011-07-04T16:51:33Z</time>
  <speed>3.780000</speed>
</trkpt>
<trkpt lat="32.739440918" lon="35.059741974">
  <ele>361.650879</ele>
  <time>2011-07-04T16:51:43Z</time>
  <speed>5.350000</speed>
</trkpt>
<trkpt lat="32.738830566" lon="35.059413910">
  <ele>362.213379</ele>
  <time>2011-07-04T16:51:56Z</time>
  <speed>4.650000</speed>
</trkpt>
<trkpt lat="32.738388062" lon="35.059284210">
  <ele>360.854004</ele>
  <time>2011-07-04T16:52:07Z</time>
  <speed>4.930000</speed>
</trkpt>
<trkpt lat="32.737052917" lon="35.060596466">
  <ele>365.721191</ele>
  <time>2011-07-04T16:53:08Z</time>
  <speed>2.750000</speed>
</trkpt>
<trkpt lat="32.736713409" lon="35.060783386">
  <ele>363.127441</ele>
  <time>2011-07-04T16:53:19Z</time>
  <speed>5.400000</speed>
</trkpt>
<trkpt lat="32.736419678" lon="35.060825348">
  <ele>359.549316</ele>
  <time>2011-07-04T16:53:25Z</time>
  <speed>5.950000</speed>
</trkpt>
<trkpt lat="32.736015320" lon="35.060726166">
  <ele>357.330566</ele>
  <time>2011-07-04T16:53:31Z</time>
  <speed>8.250000</speed>
</trkpt>
<trkpt lat="32.735897064" lon="35.060638428">
  <ele>355.768066</ele>
  <time>2011-07-04T16:53:33Z</time>
  <speed>7.130000</speed>
</trkpt>
<trkpt lat="32.735801697" lon="35.060554504">
  <ele>354.588379</ele>
  <time>2011-07-04T16:53:35Z</time>
  <speed>6.290000</speed>
</trkpt>
<trkpt lat="32.735694885" lon="35.060295105">
  <ele>351.830566</ele>
  <time>2011-07-04T16:53:39Z</time>
  <speed>6.490000</speed>
</trkpt>
<trkpt lat="32.735591888" lon="35.059646606">
  <ele>347.088379</ele>
  <time>2011-07-04T16:53:49Z</time>
  <speed>3.440000</speed>
</trkpt>
<trkpt lat="32.735504150" lon="35.059642792">
  <ele>347.080566</ele>
  <time>2011-07-04T16:53:51Z</time>
  <speed>4.730000</speed>
</trkpt>
<trkpt lat="32.735088348" lon="35.060024261">
  <ele>349.260254</ele>
  <time>2011-07-04T16:54:04Z</time>
  <speed>3.280000</speed>
</trkpt>
<trkpt lat="32.734504700" lon="35.060127258">
  <ele>358.236816</ele>
  <time>2011-07-04T16:54:23Z</time>
  <speed>2.820000</speed>
</trkpt>
<trkpt lat="32.734134674" lon="35.060081482">
  <ele>359.799316</ele>
  <time>2011-07-04T16:54:36Z</time>
  <speed>2.800000</speed>
</trkpt>
<trkpt lat="32.733997345" lon="35.059993744">
  <ele>361.338379</ele>
  <time>2011-07-04T16:54:42Z</time>
  <speed>2.790000</speed>
</trkpt>
<trkpt lat="32.733776093" lon="35.059619904">
  <ele>361.127441</ele>
  <time>2011-07-04T16:54:56Z</time>
  <speed>3.930000</speed>
</trkpt>
<trkpt lat="32.733654022" lon="35.059558868">
  <ele>358.010254</ele>
  <time>2011-07-04T16:55:00Z</time>
  <speed>4.170000</speed>
</trkpt>
<trkpt lat="32.733375549" lon="35.059871674">
  <ele>356.393066</ele>
  <time>2011-07-04T16:55:12Z</time>
  <speed>2.530000</speed>
</trkpt>
<trkpt lat="32.733200073" lon="35.060218811">
  <ele>358.768066</ele>
  <time>2011-07-04T16:55:26Z</time>
  <speed>2.690000</speed>
</trkpt>
<trkpt lat="32.733242035" lon="35.061172485">
  <ele>371.346191</ele>
  <time>2011-07-04T16:55:57Z</time>
  <speed>2.640000</speed>
</trkpt>
<trkpt lat="32.732952118" lon="35.061595917">
  <ele>374.158691</ele>
  <time>2011-07-04T16:56:17Z</time>
  <speed>2.410000</speed>
</trkpt>
<trkpt lat="32.732688904" lon="35.061672211">
  <ele>372.338379</ele>
  <time>2011-07-04T16:56:28Z</time>
  <speed>2.600000</speed>
</trkpt>
<trkpt lat="32.732143402" lon="35.061382294">
  <ele>376.049316</ele>
  <time>2011-07-04T16:56:54Z</time>
  <speed>2.400000</speed>
</trkpt>
<trkpt lat="32.731731415" lon="35.061241150">
  <ele>378.166504</ele>
  <time>2011-07-04T16:57:14Z</time>
  <speed>2.290000</speed>
</trkpt>
<trkpt lat="32.731586456" lon="35.061244965">
  <ele>378.361816</ele>
  <time>2011-07-04T16:57:20Z</time>
  <speed>2.970000</speed>
</trkpt>
<trkpt lat="32.731513977" lon="35.061325073">
  <ele>378.244629</ele>
  <time>2011-07-04T16:57:24Z</time>
  <speed>2.740000</speed>
</trkpt>
<trkpt lat="32.731838226" lon="35.061862946">
  <ele>373.049316</ele>
  <time>2011-07-04T16:57:44Z</time>
  <speed>3.500000</speed>
</trkpt>
<trkpt lat="32.731975555" lon="35.062305450">
  <ele>374.533691</ele>
  <time>2011-07-04T16:57:57Z</time>
  <speed>3.440000</speed>
</trkpt>
<trkpt lat="32.731983185" lon="35.062545776">
  <ele>375.104004</ele>
  <time>2011-07-04T16:58:03Z</time>
  <speed>4.140000</speed>
</trkpt>
<trkpt lat="32.731910706" lon="35.062908173">
  <ele>377.229004</ele>
  <time>2011-07-04T16:58:11Z</time>
  <speed>4.110000</speed>
</trkpt>
<trkpt lat="32.731101990" lon="35.064113617">
  <ele>377.064941</ele>
  <time>2011-07-04T16:58:50Z</time>
  <speed>3.440000</speed>
</trkpt>
<trkpt lat="32.731090546" lon="35.064880371">
  <ele>376.799316</ele>
  <time>2011-07-04T16:59:14Z</time>
  <speed>3.240000</speed>
</trkpt>
<trkpt lat="32.731185913" lon="35.065681458">
  <ele>383.322754</ele>
  <time>2011-07-04T16:59:40Z</time>
  <speed>2.230000</speed>
</trkpt>
<trkpt lat="32.731143951" lon="35.065971375">
  <ele>385.002441</ele>
  <time>2011-07-04T16:59:51Z</time>
  <speed>2.300000</speed>
</trkpt>
<trkpt lat="32.731063843" lon="35.066070557">
  <ele>385.111816</ele>
  <time>2011-07-04T16:59:57Z</time>
  <speed>2.310000</speed>
</trkpt>
<trkpt lat="32.730728149" lon="35.066139221">
  <ele>382.736816</ele>
  <time>2011-07-04T17:00:11Z</time>
  <speed>3.170000</speed>
</trkpt>
<trkpt lat="32.729984283" lon="35.065883636">
  <ele>379.736816</ele>
  <time>2011-07-04T17:00:28Z</time>
  <speed>5.560000</speed>
</trkpt>
<trkpt lat="32.729400635" lon="35.065998077">
  <ele>377.189941</ele>
  <time>2011-07-04T17:00:37Z</time>
  <speed>7.220000</speed>
</trkpt>
<trkpt lat="32.728763580" lon="35.066028595">
  <ele>370.463379</ele>
  <time>2011-07-04T17:00:46Z</time>
  <speed>7.700000</speed>
</trkpt>
<trkpt lat="32.728145599" lon="35.066230774">
  <ele>367.330566</ele>
  <time>2011-07-04T17:00:55Z</time>
  <speed>8.100000</speed>
</trkpt>
<trkpt lat="32.727455139" lon="35.066314697">
  <ele>366.994629</ele>
  <time>2011-07-04T17:01:04Z</time>
  <speed>8.939999</speed>
</trkpt>
<trkpt lat="32.726669312" lon="35.066062927">
  <ele>365.299316</ele>
  <time>2011-07-04T17:01:15Z</time>
  <speed>7.460000</speed>
</trkpt>
<trkpt lat="32.726135254" lon="35.065776825">
  <ele>364.979004</ele>
  <time>2011-07-04T17:01:26Z</time>
  <speed>3.860000</speed>
</trkpt>
<trkpt lat="32.725513458" lon="35.065700531">
  <ele>363.588379</ele>
  <time>2011-07-04T17:01:38Z</time>
  <speed>7.050000</speed>
</trkpt>
<trkpt lat="32.725028992" lon="35.065231323">
  <ele>355.533691</ele>
  <time>2011-07-04T17:01:48Z</time>
  <speed>4.710000</speed>
</trkpt>
<trkpt lat="32.724811554" lon="35.065551758">
  <ele>354.666504</ele>
  <time>2011-07-04T17:01:57Z</time>
  <speed>3.960000</speed>
</trkpt>
<trkpt lat="32.724250793" lon="35.065898895">
  <ele>356.729004</ele>
  <time>2011-07-04T17:02:25Z</time>
  <speed>2.370000</speed>
</trkpt>
<trkpt lat="32.724205017" lon="35.066135406">
  <ele>357.713379</ele>
  <time>2011-07-04T17:02:34Z</time>
  <speed>2.640000</speed>
</trkpt>
<trkpt lat="32.724300385" lon="35.066295624">
  <ele>358.588379</ele>
  <time>2011-07-04T17:02:40Z</time>
  <speed>2.230000</speed>
</trkpt>
<trkpt lat="32.724426270" lon="35.066390991">
  <ele>360.150879</ele>
  <time>2011-07-04T17:02:44Z</time>
  <speed>2.260000</speed>
</trkpt>
<trkpt lat="32.724941254" lon="35.066444397">
  <ele>366.807129</ele>
  <time>2011-07-04T17:03:08Z</time>
  <speed>2.250000</speed>
</trkpt>
<trkpt lat="32.725242615" lon="35.066661835">
  <ele>369.096191</ele>
  <time>2011-07-04T17:03:26Z</time>
  <speed>2.140000</speed>
</trkpt>
<trkpt lat="32.725574493" lon="35.067047119">
  <ele>375.916504</ele>
  <time>2011-07-04T17:03:54Z</time>
  <speed>1.700000</speed>
</trkpt>
<trkpt lat="32.725643158" lon="35.067234039">
  <ele>377.768066</ele>
  <time>2011-07-04T17:04:05Z</time>
  <speed>1.710000</speed>
</trkpt>
<trkpt lat="32.726310730" lon="35.068138123">
  <ele>387.150879</ele>
  <time>2011-07-04T17:05:08Z</time>
  <speed>1.490000</speed>
</trkpt>
<trkpt lat="32.726371765" lon="35.068462372">
  <ele>388.674316</ele>
  <time>2011-07-04T17:05:29Z</time>
  <speed>1.770000</speed>
</trkpt>
<trkpt lat="32.726325989" lon="35.068668365">
  <ele>390.729004</ele>
  <time>2011-07-04T17:05:41Z</time>
  <speed>1.910000</speed>
</trkpt>
<trkpt lat="32.726211548" lon="35.069030762">
  <ele>392.111816</ele>
  <time>2011-07-04T17:06:01Z</time>
  <speed>1.590000</speed>
</trkpt>
<trkpt lat="32.726257324" lon="35.069217682">
  <ele>391.307129</ele>
  <time>2011-07-04T17:06:13Z</time>
  <speed>1.340000</speed>
</trkpt>
<trkpt lat="32.726417542" lon="35.069309235">
  <ele>393.900879</ele>
  <time>2011-07-04T17:06:20Z</time>
  <speed>1.560000</speed>
</trkpt>
<trkpt lat="32.727016449" lon="35.069286346">
  <ele>396.354004</ele>
  <time>2011-07-04T17:06:55Z</time>
  <speed>1.820000</speed>
</trkpt>
<trkpt lat="32.727439880" lon="35.069355011">
  <ele>397.986816</ele>
  <time>2011-07-04T17:07:21Z</time>
  <speed>1.910000</speed>
</trkpt>
<trkpt lat="32.727767944" lon="35.069469452">
  <ele>404.986816</ele>
  <time>2011-07-04T17:07:46Z</time>
  <speed>1.540000</speed>
</trkpt>
<trkpt lat="32.727886200" lon="35.069602966">
  <ele>405.572754</ele>
  <time>2011-07-04T17:07:58Z</time>
  <speed>1.740000</speed>
</trkpt>
<trkpt lat="32.728275299" lon="35.070442200">
  <ele>411.596191</ele>
  <time>2011-07-04T17:08:50Z</time>
  <speed>1.540000</speed>
</trkpt>
<trkpt lat="32.728561401" lon="35.070854187">
  <ele>416.885254</ele>
  <time>2011-07-04T17:09:19Z</time>
  <speed>1.900000</speed>
</trkpt>
<trkpt lat="32.728713989" lon="35.071315765">
  <ele>417.760254</ele>
  <time>2011-07-04T17:09:48Z</time>
  <speed>1.670000</speed>
</trkpt>
<trkpt lat="32.728729248" lon="35.071617126">
  <ele>420.346191</ele>
  <time>2011-07-04T17:10:03Z</time>
  <speed>1.640000</speed>
</trkpt>
<trkpt lat="32.728641510" lon="35.071739197">
  <ele>422.338379</ele>
  <time>2011-07-04T17:10:11Z</time>
  <speed>1.980000</speed>
</trkpt>
<trkpt lat="32.728450775" lon="35.071743011">
  <ele>423.096191</ele>
  <time>2011-07-04T17:10:21Z</time>
  <speed>1.800000</speed>
</trkpt>
<trkpt lat="32.728286743" lon="35.071575165">
  <ele>421.830566</ele>
  <time>2011-07-04T17:10:33Z</time>
  <speed>1.850000</speed>
</trkpt>
<trkpt lat="32.728004456" lon="35.071067810">
  <ele>424.775879</ele>
  <time>2011-07-04T17:11:09Z</time>
  <speed>1.210000</speed>
</trkpt>
<trkpt lat="32.727714539" lon="35.070903778">
  <ele>427.041504</ele>
  <time>2011-07-04T17:11:34Z</time>
  <speed>0.980000</speed>
</trkpt>
<trkpt lat="32.727741241" lon="35.070854187">
  <ele>428.908691</ele>
  <time>2011-07-04T17:11:55Z</time>
  <speed>0.460000</speed>
</trkpt>
<trkpt lat="32.727359772" lon="35.070873260">
  <ele>431.314941</ele>
  <time>2011-07-04T17:12:55Z</time>
  <speed>1.520000</speed>
</trkpt>
<trkpt lat="32.726993561" lon="35.070972443">
  <ele>432.939941</ele>
  <time>2011-07-04T17:13:23Z</time>
  <speed>1.620000</speed>
</trkpt>
<trkpt lat="32.726657867" lon="35.071178436">
  <ele>436.768066</ele>
  <time>2011-07-04T17:13:49Z</time>
  <speed>1.730000</speed>
</trkpt>
<trkpt lat="32.726215363" lon="35.071567535">
  <ele>441.611816</ele>
  <time>2011-07-04T17:14:30Z</time>
  <speed>1.710000</speed>
</trkpt>
<trkpt lat="32.726047516" lon="35.072170258">
  <ele>446.830566</ele>
  <time>2011-07-04T17:15:04Z</time>
  <speed>1.410000</speed>
</trkpt>
<trkpt lat="32.725914001" lon="35.072399139">
  <ele>449.283691</ele>
  <time>2011-07-04T17:15:25Z</time>
  <speed>1.310000</speed>
</trkpt>
<trkpt lat="32.725543976" lon="35.072902679">
  <ele>448.260254</ele>
  <time>2011-07-04T17:16:05Z</time>
  <speed>1.380000</speed>
</trkpt>
<trkpt lat="32.724845886" lon="35.073375702">
  <ele>459.408691</ele>
  <time>2011-07-04T17:16:56Z</time>
  <speed>1.700000</speed>
</trkpt>
<trkpt lat="32.724727631" lon="35.073684692">
  <ele>462.346191</ele>
  <time>2011-07-04T17:17:13Z</time>
  <speed>1.820000</speed>
</trkpt>
<trkpt lat="32.723674774" lon="35.075302124">
  <ele>468.205566</ele>
  <time>2011-07-04T17:18:39Z</time>
  <speed>1.970000</speed>
</trkpt>
<trkpt lat="32.723384857" lon="35.075424194">
  <ele>468.689941</ele>
  <time>2011-07-04T17:18:52Z</time>
  <speed>2.520000</speed>
</trkpt>
<trkpt lat="32.722854614" lon="35.075336456">
  <ele>468.893066</ele>
  <time>2011-07-04T17:19:15Z</time>
  <speed>2.800000</speed>
</trkpt>
<trkpt lat="32.722484589" lon="35.075607300">
  <ele>469.682129</ele>
  <time>2011-07-04T17:19:33Z</time>
  <speed>2.640000</speed>
</trkpt>
<trkpt lat="32.722049713" lon="35.075439453">
  <ele>469.760254</ele>
  <time>2011-07-04T17:19:52Z</time>
  <speed>2.480000</speed>
</trkpt>
<trkpt lat="32.721767426" lon="35.075599670">
  <ele>470.557129</ele>
  <time>2011-07-04T17:20:06Z</time>
  <speed>2.050000</speed>
</trkpt>
<trkpt lat="32.721496582" lon="35.075904846">
  <ele>469.525879</ele>
  <time>2011-07-04T17:20:23Z</time>
  <speed>2.400000</speed>
</trkpt>
<trkpt lat="32.720939636" lon="35.076244354">
  <ele>475.182129</ele>
  <time>2011-07-04T17:20:57Z</time>
  <speed>1.490000</speed>
</trkpt>
<trkpt lat="32.719841003" lon="35.077159882">
  <ele>485.158691</ele>
  <time>2011-07-04T17:22:07Z</time>
  <speed>2.520000</speed>
</trkpt>
<trkpt lat="32.719535828" lon="35.077247620">
  <ele>484.213379</ele>
  <time>2011-07-04T17:22:20Z</time>
  <speed>2.460000</speed>
</trkpt>
<trkpt lat="32.718677521" lon="35.077209473">
  <ele>484.783691</ele>
  <time>2011-07-04T17:22:54Z</time>
  <speed>2.370000</speed>
</trkpt>
<trkpt lat="32.718669891" lon="35.077072144">
  <ele>484.275879</ele>
  <time>2011-07-04T17:23:00Z</time>
  <speed>2.100000</speed>
</trkpt>
<trkpt lat="32.719116211" lon="35.076316833">
  <ele>489.322754</ele>
  <time>2011-07-04T17:23:34Z</time>
  <speed>2.210000</speed>
</trkpt>
<trkpt lat="32.719245911" lon="35.075958252">
  <ele>488.932129</ele>
  <time>2011-07-04T17:23:50Z</time>
  <speed>2.450000</speed>
</trkpt>
<trkpt lat="32.719692230" lon="35.075420380">
  <ele>488.979004</ele>
  <time>2011-07-04T17:24:16Z</time>
  <speed>4.130000</speed>
</trkpt>
<trkpt lat="32.720020294" lon="35.075027466">
  <ele>486.924316</ele>
  <time>2011-07-04T17:24:29Z</time>
  <speed>3.550000</speed>
</trkpt>
<trkpt lat="32.720878601" lon="35.074638367">
  <ele>488.814941</ele>
  <time>2011-07-04T17:25:06Z</time>
  <speed>1.910000</speed>
</trkpt>
<trkpt lat="32.721107483" lon="35.074325562">
  <ele>491.877441</ele>
  <time>2011-07-04T17:25:18Z</time>
  <speed>3.610000</speed>
</trkpt>
<trkpt lat="32.721473694" lon="35.074115753">
  <ele>496.932129</ele>
  <time>2011-07-04T17:25:33Z</time>
  <speed>2.310000</speed>
</trkpt>
<trkpt lat="32.721843719" lon="35.073764801">
  <ele>500.799316</ele>
  <time>2011-07-04T17:25:54Z</time>
  <speed>2.350000</speed>
</trkpt>
<trkpt lat="32.722114563" lon="35.073669434">
  <ele>496.713379</ele>
  <time>2011-07-04T17:26:06Z</time>
  <speed>3.170000</speed>
</trkpt>
<trkpt lat="32.722194672" lon="35.073581696">
  <ele>496.518066</ele>
  <time>2011-07-04T17:26:10Z</time>
  <speed>2.900000</speed>
</trkpt>
<trkpt lat="32.722564697" lon="35.073482513">
  <ele>495.525879</ele>
  <time>2011-07-04T17:26:22Z</time>
  <speed>3.180000</speed>
</trkpt>
<trkpt lat="32.722755432" lon="35.073333740">
  <ele>492.744629</ele>
  <time>2011-07-04T17:26:30Z</time>
  <speed>2.930000</speed>
</trkpt>
<trkpt lat="32.722991943" lon="35.072731018">
  <ele>485.682129</ele>
  <time>2011-07-04T17:26:52Z</time>
  <speed>1.240000</speed>
</trkpt>
<trkpt lat="32.722801208" lon="35.072479248">
  <ele>482.971191</ele>
  <time>2011-07-04T17:29:12Z</time>
  <speed>4.740000</speed>
</trkpt>
<trkpt lat="32.722705841" lon="35.071807861">
  <ele>478.525879</ele>
  <time>2011-07-04T17:29:25Z</time>
  <speed>4.640000</speed>
</trkpt>
<trkpt lat="32.723426819" lon="35.070423126">
  <ele>462.525879</ele>
  <time>2011-07-04T17:30:01Z</time>
  <speed>3.180000</speed>
</trkpt>
<trkpt lat="32.723449707" lon="35.069698334">
  <ele>453.400879</ele>
  <time>2011-07-04T17:30:20Z</time>
  <speed>3.010000</speed>
</trkpt>
<trkpt lat="32.723587036" lon="35.069023132">
  <ele>444.494629</ele>
  <time>2011-07-04T17:30:37Z</time>
  <speed>3.170000</speed>
</trkpt>
<trkpt lat="32.723739624" lon="35.068622589">
  <ele>436.627441</ele>
  <time>2011-07-04T17:30:46Z</time>
  <speed>4.220000</speed>
</trkpt>
<trkpt lat="32.723865509" lon="35.068492889">
  <ele>437.932129</ele>
  <time>2011-07-04T17:30:51Z</time>
  <speed>3.660000</speed>
</trkpt>
<trkpt lat="32.724021912" lon="35.068439484">
  <ele>434.041504</ele>
  <time>2011-07-04T17:30:56Z</time>
  <speed>2.690000</speed>
</trkpt>
<trkpt lat="32.724189758" lon="35.068477631">
  <ele>430.791504</ele>
  <time>2011-07-04T17:31:02Z</time>
  <speed>2.960000</speed>
</trkpt>
<trkpt lat="32.724941254" lon="35.068771362">
  <ele>439.705566</ele>
  <time>2011-07-04T17:31:44Z</time>
  <speed>3.480000</speed>
</trkpt>
<trkpt lat="32.725166321" lon="35.068943024">
  <ele>439.463379</ele>
  <time>2011-07-04T17:31:51Z</time>
  <speed>2.660000</speed>
</trkpt>
<trkpt lat="32.725303650" lon="35.069198608">
  <ele>440.096191</ele>
  <time>2011-07-04T17:32:01Z</time>
  <speed>2.460000</speed>
</trkpt>
<trkpt lat="32.725593567" lon="35.069492340">
  <ele>435.557129</ele>
  <time>2011-07-04T17:32:14Z</time>
  <speed>3.560000</speed>
</trkpt>
<trkpt lat="32.725914001" lon="35.070350647">
  <ele>429.432129</ele>
  <time>2011-07-04T17:32:40Z</time>
  <speed>2.550000</speed>
</trkpt>
<trkpt lat="32.726051331" lon="35.070392609">
  <ele>427.299316</ele>
  <time>2011-07-04T17:32:45Z</time>
  <speed>1.990000</speed>
</trkpt>
<trkpt lat="32.726284027" lon="35.070327759">
  <ele>423.283691</ele>
  <time>2011-07-04T17:32:52Z</time>
  <speed>3.250000</speed>
</trkpt>
<trkpt lat="32.726627350" lon="35.069950104">
  <ele>418.658691</ele>
  <time>2011-07-04T17:33:04Z</time>
  <speed>3.610000</speed>
</trkpt>
<trkpt lat="32.726989746" lon="35.069957733">
  <ele>422.705566</ele>
  <time>2011-07-04T17:33:18Z</time>
  <speed>2.320000</speed>
</trkpt>
<trkpt lat="32.727142334" lon="35.069900513">
  <ele>419.916504</ele>
  <time>2011-07-04T17:33:23Z</time>
  <speed>3.650000</speed>
</trkpt>
<trkpt lat="32.727443695" lon="35.069950104">
  <ele>428.314941</ele>
  <time>2011-07-04T17:33:32Z</time>
  <speed>3.180000</speed>
</trkpt>
<trkpt lat="32.727809906" lon="35.070266724">
  <ele>429.783691</ele>
  <time>2011-07-04T17:33:56Z</time>
  <speed>2.740000</speed>
</trkpt>
<trkpt lat="32.728069305" lon="35.070690155">
  <ele>428.229004</ele>
  <time>2011-07-04T17:34:13Z</time>
  <speed>2.620000</speed>
</trkpt>
<trkpt lat="32.728481293" lon="35.071025848">
  <ele>427.236816</ele>
  <time>2011-07-04T17:34:27Z</time>
  <speed>3.980000</speed>
</trkpt>
<trkpt lat="32.728595734" lon="35.071250916">
  <ele>426.518066</ele>
  <time>2011-07-04T17:34:32Z</time>
  <speed>3.820000</speed>
</trkpt>
<trkpt lat="32.728652954" lon="35.071563721">
  <ele>424.049316</ele>
  <time>2011-07-04T17:34:41Z</time>
  <speed>4.830000</speed>
</trkpt>
<trkpt lat="32.728740692" lon="35.071659088">
  <ele>420.846191</ele>
  <time>2011-07-04T17:34:46Z</time>
  <speed>0.810000</speed>
</trkpt>
<trkpt lat="32.728755951" lon="35.071384430">
  <ele>418.143066</ele>
  <time>2011-07-04T17:38:11Z</time>
  <speed>3.660000</speed>
</trkpt>
<trkpt lat="32.728565216" lon="35.070838928">
  <ele>413.939941</ele>
  <time>2011-07-04T17:38:21Z</time>
  <speed>6.680000</speed>
</trkpt>
<trkpt lat="32.727840424" lon="35.069530487">
  <ele>403.033691</ele>
  <time>2011-07-04T17:38:38Z</time>
  <speed>8.570000</speed>
</trkpt>
<trkpt lat="32.727725983" lon="35.069408417">
  <ele>403.799316</ele>
  <time>2011-07-04T17:38:40Z</time>
  <speed>7.980000</speed>
</trkpt>
<trkpt lat="32.727348328" lon="35.069267273">
  <ele>401.236816</ele>
  <time>2011-07-04T17:38:45Z</time>
  <speed>7.950000</speed>
</trkpt>
<trkpt lat="32.726264954" lon="35.069232941">
  <ele>392.955566</ele>
  <time>2011-07-04T17:38:58Z</time>
  <speed>5.490000</speed>
</trkpt>
<trkpt lat="32.726173401" lon="35.069034576">
  <ele>388.299316</ele>
  <time>2011-07-04T17:39:02Z</time>
  <speed>5.840000</speed>
</trkpt>
<trkpt lat="32.726379395" lon="35.068500519">
  <ele>383.260254</ele>
  <time>2011-07-04T17:39:09Z</time>
  <speed>8.740000</speed>
</trkpt>
<trkpt lat="32.726348877" lon="35.068161011">
  <ele>380.650879</ele>
  <time>2011-07-04T17:39:13Z</time>
  <speed>7.650000</speed>
</trkpt>
<trkpt lat="32.725578308" lon="35.067043304">
  <ele>371.158691</ele>
  <time>2011-07-04T17:39:27Z</time>
  <speed>8.510000</speed>
</trkpt>
<trkpt lat="32.725193024" lon="35.066604614">
  <ele>366.424316</ele>
  <time>2011-07-04T17:39:33Z</time>
  <speed>9.750000</speed>
</trkpt>
<trkpt lat="32.724777222" lon="35.066364288">
  <ele>362.439941</ele>
  <time>2011-07-04T17:39:38Z</time>
  <speed>9.720000</speed>
</trkpt>
<trkpt lat="32.724246979" lon="35.066234589">
  <ele>359.143066</ele>
  <time>2011-07-04T17:39:45Z</time>
  <speed>5.850000</speed>
</trkpt>
<trkpt lat="32.724193573" lon="35.066093445">
  <ele>356.229004</ele>
  <time>2011-07-04T17:39:48Z</time>
  <speed>4.490000</speed>
</trkpt>
<trkpt lat="32.724250793" lon="35.065959930">
  <ele>356.924316</ele>
  <time>2011-07-04T17:39:51Z</time>
  <speed>4.180000</speed>
</trkpt>
<trkpt lat="32.724922180" lon="35.065525055">
  <ele>356.104004</ele>
  <time>2011-07-04T17:40:04Z</time>
  <speed>7.100000</speed>
</trkpt>
<trkpt lat="32.725170135" lon="35.065196991">
  <ele>353.846191</ele>
  <time>2011-07-04T17:40:10Z</time>
  <speed>4.260000</speed>
</trkpt>
<trkpt lat="32.725440979" lon="35.065555573">
  <ele>361.697754</ele>
  <time>2011-07-04T17:40:31Z</time>
  <speed>1.980000</speed>
</trkpt>
<trkpt lat="32.725540161" lon="35.065650940">
  <ele>365.002441</ele>
  <time>2011-07-04T17:40:37Z</time>
  <speed>1.510000</speed>
</trkpt>
<trkpt lat="32.725669861" lon="35.065723419">
  <ele>368.150879</ele>
  <time>2011-07-04T17:40:45Z</time>
  <speed>1.760000</speed>
</trkpt>
<trkpt lat="32.726230621" lon="35.065753937">
  <ele>369.416504</ele>
  <time>2011-07-04T17:41:16Z</time>
  <speed>2.460000</speed>
</trkpt>
<trkpt lat="32.727111816" lon="35.066154480">
  <ele>370.283691</ele>
  <time>2011-07-04T17:41:53Z</time>
  <speed>2.970000</speed>
</trkpt>
<trkpt lat="32.727535248" lon="35.066249847">
  <ele>371.119629</ele>
  <time>2011-07-04T17:42:10Z</time>
  <speed>2.520000</speed>
</trkpt>
<trkpt lat="32.728610992" lon="35.066120148">
  <ele>372.635254</ele>
  <time>2011-07-04T17:43:01Z</time>
  <speed>2.540000</speed>
</trkpt>
<trkpt lat="32.729118347" lon="35.065940857">
  <ele>375.689941</ele>
  <time>2011-07-04T17:43:22Z</time>
  <speed>2.530000</speed>
</trkpt>
<trkpt lat="32.729988098" lon="35.065887451">
  <ele>379.924316</ele>
  <time>2011-07-04T17:44:02Z</time>
  <speed>2.480000</speed>
</trkpt>
<trkpt lat="32.730342865" lon="35.065929413">
  <ele>381.775879</ele>
  <time>2011-07-04T17:44:17Z</time>
  <speed>2.910000</speed>
</trkpt>
<trkpt lat="32.730869293" lon="35.066108704">
  <ele>385.213379</ele>
  <time>2011-07-04T17:44:39Z</time>
  <speed>2.440000</speed>
</trkpt>
<trkpt lat="32.731117249" lon="35.066043854">
  <ele>384.682129</ele>
  <time>2011-07-04T17:44:49Z</time>
  <speed>2.810000</speed>
</trkpt>
<trkpt lat="32.731250763" lon="35.065731049">
  <ele>386.658691</ele>
  <time>2011-07-04T17:45:01Z</time>
  <speed>3.500000</speed>
</trkpt>
<trkpt lat="32.731105804" lon="35.064281464">
  <ele>373.221191</ele>
  <time>2011-07-04T17:45:21Z</time>
  <speed>7.120000</speed>
</trkpt>
<trkpt lat="32.731147766" lon="35.064052582">
  <ele>371.697754</ele>
  <time>2011-07-04T17:45:24Z</time>
  <speed>7.050000</speed>
</trkpt>
<trkpt lat="32.731922150" lon="35.062858582">
  <ele>373.283691</ele>
  <time>2011-07-04T17:45:46Z</time>
  <speed>6.980000</speed>
</trkpt>
<trkpt lat="32.732059479" lon="35.062442780">
  <ele>372.025879</ele>
  <time>2011-07-04T17:45:53Z</time>
  <speed>5.940000</speed>
</trkpt>
<trkpt lat="32.732021332" lon="35.062129974">
  <ele>372.939941</ele>
  <time>2011-07-04T17:45:58Z</time>
  <speed>5.170000</speed>
</trkpt>
<trkpt lat="32.731601715" lon="35.061260223">
  <ele>373.150879</ele>
  <time>2011-07-04T17:46:21Z</time>
  <speed>2.380000</speed>
</trkpt>
<trkpt lat="32.731689453" lon="35.061187744">
  <ele>374.221191</ele>
  <time>2011-07-04T17:46:26Z</time>
  <speed>1.910000</speed>
</trkpt>
<trkpt lat="32.731849670" lon="35.061210632">
  <ele>375.721191</ele>
  <time>2011-07-04T17:46:34Z</time>
  <speed>2.870000</speed>
</trkpt>
<trkpt lat="32.732589722" lon="35.061576843">
  <ele>371.846191</ele>
  <time>2011-07-04T17:46:53Z</time>
  <speed>6.540000</speed>
</trkpt>
<trkpt lat="32.732826233" lon="35.061630249">
  <ele>371.018066</ele>
  <time>2011-07-04T17:46:57Z</time>
  <speed>6.910000</speed>
</trkpt>
<trkpt lat="32.732994080" lon="35.061584473">
  <ele>371.127441</ele>
  <time>2011-07-04T17:47:00Z</time>
  <speed>7.040000</speed>
</trkpt>
<trkpt lat="32.733299255" lon="35.061058044">
  <ele>368.744629</ele>
  <time>2011-07-04T17:47:08Z</time>
  <speed>7.520000</speed>
</trkpt>
<trkpt lat="32.733348846" lon="35.060634613">
  <ele>365.986816</ele>
  <time>2011-07-04T17:47:13Z</time>
  <speed>7.970000</speed>
</trkpt>
<trkpt lat="32.733318329" lon="35.060115814">
  <ele>363.916504</ele>
  <time>2011-07-04T17:47:19Z</time>
  <speed>7.640000</speed>
</trkpt>
<trkpt lat="32.733707428" lon="35.059528351">
  <ele>359.291504</ele>
  <time>2011-07-04T17:47:28Z</time>
  <speed>7.760000</speed>
</trkpt>
<trkpt lat="32.733852386" lon="35.059562683">
  <ele>355.682129</ele>
  <time>2011-07-04T17:47:31Z</time>
  <speed>4.880000</speed>
</trkpt>
<trkpt lat="32.733993530" lon="35.059879303">
  <ele>356.182129</ele>
  <time>2011-07-04T17:47:37Z</time>
  <speed>5.050000</speed>
</trkpt>
<trkpt lat="32.734111786" lon="35.059989929">
  <ele>356.939941</ele>
  <time>2011-07-04T17:47:40Z</time>
  <speed>5.320000</speed>
</trkpt>
<trkpt lat="32.734603882" lon="35.060112000">
  <ele>358.393066</ele>
  <time>2011-07-04T17:47:51Z</time>
  <speed>4.860000</speed>
</trkpt>
<trkpt lat="32.735115051" lon="35.060039520">
  <ele>356.666504</ele>
  <time>2011-07-04T17:48:01Z</time>
  <speed>6.750000</speed>
</trkpt>
<trkpt lat="32.735610962" lon="35.059684753">
  <ele>351.908691</ele>
  <time>2011-07-04T17:48:10Z</time>
  <speed>4.380000</speed>
</trkpt>
<trkpt lat="32.735679626" lon="35.059780121">
  <ele>351.572754</ele>
  <time>2011-07-04T17:48:14Z</time>
  <speed>2.950000</speed>
</trkpt>
<trkpt lat="32.735706329" lon="35.060245514">
  <ele>353.986816</ele>
  <time>2011-07-04T17:48:31Z</time>
  <speed>1.920000</speed>
</trkpt>
<trkpt lat="32.735809326" lon="35.060447693">
  <ele>357.221191</ele>
  <time>2011-07-04T17:48:41Z</time>
  <speed>2.230000</speed>
</trkpt>
<trkpt lat="32.736164093" lon="35.060695648">
  <ele>357.189941</ele>
  <time>2011-07-04T17:49:03Z</time>
  <speed>2.270000</speed>
</trkpt>
<trkpt lat="32.736492157" lon="35.060752869">
  <ele>357.369629</ele>
  <time>2011-07-04T17:49:19Z</time>
  <speed>2.180000</speed>
</trkpt>
<trkpt lat="32.736770630" lon="35.060726166">
  <ele>361.729004</ele>
  <time>2011-07-04T17:49:33Z</time>
  <speed>1.900000</speed>
</trkpt>
<trkpt lat="32.737308502" lon="35.060440063">
  <ele>366.994629</ele>
  <time>2011-07-04T17:49:59Z</time>
  <speed>2.340000</speed>
</trkpt>
<trkpt lat="32.738491058" lon="35.059265137">
  <ele>360.393066</ele>
  <time>2011-07-04T17:50:45Z</time>
  <speed>5.380000</speed>
</trkpt>
<trkpt lat="32.738990784" lon="35.059360504">
  <ele>360.658691</ele>
  <time>2011-07-04T17:51:01Z</time>
  <speed>4.290000</speed>
</trkpt>
<trkpt lat="32.739444733" lon="35.059665680">
  <ele>362.096191</ele>
  <time>2011-07-04T17:51:15Z</time>
  <speed>3.780000</speed>
</trkpt>
<trkpt lat="32.739753723" lon="35.059658051">
  <ele>363.994629</ele>
  <time>2011-07-04T17:51:24Z</time>
  <speed>3.930000</speed>
</trkpt>
<trkpt lat="32.740116119" lon="35.059402466">
  <ele>365.518066</ele>
  <time>2011-07-04T17:51:36Z</time>
  <speed>3.870000</speed>
</trkpt>
<trkpt lat="32.740303040" lon="35.058856964">
  <ele>362.041504</ele>
  <time>2011-07-04T17:51:51Z</time>
  <speed>4.130000</speed>
</trkpt>
<trkpt lat="32.740379333" lon="35.058792114">
  <ele>361.971191</ele>
  <time>2011-07-04T17:51:54Z</time>
  <speed>3.320000</speed>
</trkpt>
<trkpt lat="32.740528107" lon="35.058841705">
  <ele>359.377441</ele>
  <time>2011-07-04T17:51:58Z</time>
  <speed>3.690000</speed>
</trkpt>
<trkpt lat="32.740795135" lon="35.059139252">
  <ele>363.033691</ele>
  <time>2011-07-04T17:52:09Z</time>
  <speed>3.540000</speed>
</trkpt>
<trkpt lat="32.740825653" lon="35.059150696">
  <ele>363.494629</ele>
  <time>2011-07-04T17:52:10Z</time>
  <speed>3.890000</speed>
</trkpt>
<trkpt lat="32.741127014" lon="35.059204102">
  <ele>366.775879</ele>
  <time>2011-07-04T17:52:19Z</time>
  <speed>3.380000</speed>
</trkpt>
<trkpt lat="32.741519928" lon="35.059680939">
  <ele>369.596191</ele>
  <time>2011-07-04T17:52:37Z</time>
  <speed>3.370000</speed>
</trkpt>
<trkpt lat="32.741767883" lon="35.059776306">
  <ele>371.049316</ele>
  <time>2011-07-04T17:52:45Z</time>
  <speed>3.170000</speed>
</trkpt>
<trkpt lat="32.742164612" lon="35.059665680">
  <ele>370.182129</ele>
  <time>2011-07-04T17:52:58Z</time>
  <speed>3.360000</speed>
</trkpt>
<trkpt lat="32.742412567" lon="35.059356689">
  <ele>372.916504</ele>
  <time>2011-07-04T17:53:12Z</time>
  <speed>3.240000</speed>
</trkpt>
<trkpt lat="32.742645264" lon="35.059223175">
  <ele>378.861816</ele>
  <time>2011-07-04T17:53:22Z</time>
  <speed>2.270000</speed>
</trkpt>
<trkpt lat="32.742820740" lon="35.058967590">
  <ele>379.713379</ele>
  <time>2011-07-04T17:53:33Z</time>
  <speed>2.670000</speed>
</trkpt>
<trkpt lat="32.743724823" lon="35.058200836">
  <ele>380.018066</ele>
  <time>2011-07-04T17:54:13Z</time>
  <speed>2.990000</speed>
</trkpt>
<trkpt lat="32.745075226" lon="35.056739807">
  <ele>378.924316</ele>
  <time>2011-07-04T17:55:07Z</time>
  <speed>3.450000</speed>
</trkpt>
<trkpt lat="32.745983124" lon="35.056022644">
  <ele>387.338379</ele>
  <time>2011-07-04T17:55:52Z</time>
  <speed>1.740000</speed>
</trkpt>
<trkpt lat="32.745800018" lon="35.056037903">
  <ele>382.854004</ele>
  <time>2011-07-04T18:00:18Z</time>
  <speed>1.290000</speed>
</trkpt>
<trkpt lat="32.745567322" lon="35.056179047">
  <ele>384.221191</ele>
  <time>2011-07-04T18:00:35Z</time>
  <speed>1.310000</speed>
</trkpt>
<trkpt lat="32.744766235" lon="35.056243896">
  <ele>397.877441</ele>
  <time>2011-07-04T18:01:25Z</time>
  <speed>1.610000</speed>
</trkpt>
<trkpt lat="32.744419098" lon="35.056442261">
  <ele>394.557129</ele>
  <time>2011-07-04T18:01:49Z</time>
  <speed>2.190000</speed>
</trkpt>
<trkpt lat="32.744178772" lon="35.056438446">
  <ele>396.064941</ele>
  <time>2011-07-04T18:02:03Z</time>
  <speed>1.900000</speed>
</trkpt>
<trkpt lat="32.743564606" lon="35.056587219">
  <ele>404.002441</ele>
  <time>2011-07-04T18:02:42Z</time>
  <speed>1.380000</speed>
</trkpt>
<trkpt lat="32.743118286" lon="35.056610107">
  <ele>409.197754</ele>
  <time>2011-07-04T18:03:11Z</time>
  <speed>1.680000</speed>
</trkpt>
<trkpt lat="32.743110657" lon="35.056434631">
  <ele>409.854004</ele>
  <time>2011-07-04T18:03:22Z</time>
  <speed>1.840000</speed>
</trkpt>
<trkpt lat="32.743328094" lon="35.056339264">
  <ele>409.354004</ele>
  <time>2011-07-04T18:03:34Z</time>
  <speed>1.640000</speed>
</trkpt>
<trkpt lat="32.744007111" lon="35.055839539">
  <ele>407.096191</ele>
  <time>2011-07-04T18:04:26Z</time>
  <speed>1.660000</speed>
</trkpt>
<trkpt lat="32.744766235" lon="35.054882050">
  <ele>419.760254</ele>
  <time>2011-07-04T18:05:29Z</time>
  <speed>1.850000</speed>
</trkpt>
<trkpt lat="32.744983673" lon="35.054698944">
  <ele>423.564941</ele>
  <time>2011-07-04T18:05:45Z</time>
  <speed>1.890000</speed>
</trkpt>
<trkpt lat="32.745292664" lon="35.053974152">
  <ele>426.393066</ele>
  <time>2011-07-04T18:06:24Z</time>
  <speed>1.460000</speed>
</trkpt>
<trkpt lat="32.746398926" lon="35.053829193">
  <ele>435.877441</ele>
  <time>2011-07-04T18:07:36Z</time>
  <speed>1.550000</speed>
</trkpt>
<trkpt lat="32.747154236" lon="35.053852081">
  <ele>446.346191</ele>
  <time>2011-07-04T18:08:23Z</time>
  <speed>1.650000</speed>
</trkpt>
<trkpt lat="32.747467041" lon="35.053642273">
  <ele>447.502441</ele>
  <time>2011-07-04T18:08:43Z</time>
  <speed>1.870000</speed>
</trkpt>
<trkpt lat="32.747535706" lon="35.053352356">
  <ele>444.604004</ele>
  <time>2011-07-04T18:08:56Z</time>
  <speed>2.070000</speed>
</trkpt>
<trkpt lat="32.747409821" lon="35.053150177">
  <ele>444.736816</ele>
  <time>2011-07-04T18:09:06Z</time>
  <speed>2.180000</speed>
</trkpt>
<trkpt lat="32.746944427" lon="35.052944183">
  <ele>449.502441</ele>
  <time>2011-07-04T18:09:31Z</time>
  <speed>1.730000</speed>
</trkpt>
<trkpt lat="32.746696472" lon="35.052913666">
  <ele>452.822754</ele>
  <time>2011-07-04T18:09:46Z</time>
  <speed>2.510000</speed>
</trkpt>
<trkpt lat="32.746376038" lon="35.053028107">
  <ele>454.377441</ele>
  <time>2011-07-04T18:10:06Z</time>
  <speed>1.800000</speed>
</trkpt>
<trkpt lat="32.745903015" lon="35.053028107">
  <ele>460.775879</ele>
  <time>2011-07-04T18:10:36Z</time>
  <speed>1.720000</speed>
</trkpt>
<trkpt lat="32.745639801" lon="35.052906036">
  <ele>461.783691</ele>
  <time>2011-07-04T18:10:56Z</time>
  <speed>1.160000</speed>
</trkpt>
<trkpt lat="32.745162964" lon="35.052516937">
  <ele>471.033691</ele>
  <time>2011-07-04T18:11:29Z</time>
  <speed>1.670000</speed>
</trkpt>
<trkpt lat="32.744930267" lon="35.052486420">
  <ele>475.572754</ele>
  <time>2011-07-04T18:11:43Z</time>
  <speed>1.530000</speed>
</trkpt>
<trkpt lat="32.744789124" lon="35.052490234">
  <ele>473.877441</ele>
  <time>2011-07-04T18:11:53Z</time>
  <speed>1.600000</speed>
</trkpt>
<trkpt lat="32.744548798" lon="35.052631378">
  <ele>471.400879</ele>
  <time>2011-07-04T18:12:09Z</time>
  <speed>1.860000</speed>
</trkpt>
<trkpt lat="32.744239807" lon="35.052597046">
  <ele>474.752441</ele>
  <time>2011-07-04T18:12:29Z</time>
  <speed>1.700000</speed>
</trkpt>
<trkpt lat="32.743957520" lon="35.052642822">
  <ele>476.916504</ele>
  <time>2011-07-04T18:12:48Z</time>
  <speed>1.780000</speed>
</trkpt>
<trkpt lat="32.743675232" lon="35.052505493">
  <ele>484.119629</ele>
  <time>2011-07-04T18:13:12Z</time>
  <speed>1.150000</speed>
</trkpt>
<trkpt lat="32.743190765" lon="35.052562714">
  <ele>486.150879</ele>
  <time>2011-07-04T18:13:47Z</time>
  <speed>1.500000</speed>
</trkpt>
<trkpt lat="32.742622375" lon="35.052539825">
  <ele>488.955566</ele>
  <time>2011-07-04T18:14:26Z</time>
  <speed>1.620000</speed>
</trkpt>
<trkpt lat="32.741989136" lon="35.052276611">
  <ele>500.830566</ele>
  <time>2011-07-04T18:15:16Z</time>
  <speed>1.910000</speed>
</trkpt>
<trkpt lat="32.741641998" lon="35.052337646">
  <ele>506.111816</ele>
  <time>2011-07-04T18:15:35Z</time>
  <speed>1.390000</speed>
</trkpt>
<trkpt lat="32.741390228" lon="35.051959991">
  <ele>514.067383</ele>
  <time>2011-07-04T18:16:13Z</time>
  <speed>1.020000</speed>
</trkpt>
<trkpt lat="32.741230011" lon="35.051864624">
  <ele>516.239258</ele>
  <time>2011-07-04T18:16:30Z</time>
  <speed>0.780000</speed>
</trkpt>
<trkpt lat="32.741065979" lon="35.051879883">
  <ele>518.192383</ele>
  <time>2011-07-04T18:16:43Z</time>
  <speed>1.400000</speed>
</trkpt>
<trkpt lat="32.740978241" lon="35.051795959">
  <ele>519.004883</ele>
  <time>2011-07-04T18:16:53Z</time>
  <speed>0.740000</speed>
</trkpt>
<trkpt lat="32.740848541" lon="35.051784515">
  <ele>518.286133</ele>
  <time>2011-07-04T18:17:02Z</time>
  <speed>1.080000</speed>
</trkpt>
<trkpt lat="32.740810394" lon="35.051971436">
  <ele>508.971191</ele>
  <time>2011-07-04T18:22:49Z</time>
  <speed>0.150000</speed>
</trkpt>
<trkpt lat="32.741165161" lon="35.051864624">
  <ele>525.645508</ele>
  <time>2011-07-04T18:24:25Z</time>
  <speed>4.110000</speed>
</trkpt>
<trkpt lat="32.741325378" lon="35.051998138">
  <ele>522.411133</ele>
  <time>2011-07-04T18:24:30Z</time>
  <speed>4.140000</speed>
</trkpt>
<trkpt lat="32.741592407" lon="35.052566528">
  <ele>515.208008</ele>
  <time>2011-07-04T18:24:39Z</time>
  <speed>4.960000</speed>
</trkpt>
<trkpt lat="32.741825104" lon="35.052856445">
  <ele>506.775879</ele>
  <time>2011-07-04T18:24:45Z</time>
  <speed>2.290000</speed>
</trkpt>
<trkpt lat="32.741973877" lon="35.052783966">
  <ele>501.025879</ele>
  <time>2011-07-04T18:24:50Z</time>
  <speed>2.640000</speed>
</trkpt>
<trkpt lat="32.742122650" lon="35.052898407">
  <ele>497.533691</ele>
  <time>2011-07-04T18:24:55Z</time>
  <speed>2.140000</speed>
</trkpt>
<trkpt lat="32.742706299" lon="35.053005219">
  <ele>495.244629</ele>
  <time>2011-07-04T18:25:07Z</time>
  <speed>5.640000</speed>
</trkpt>
<trkpt lat="32.742870331" lon="35.053169250">
  <ele>497.807129</ele>
  <time>2011-07-04T18:25:12Z</time>
  <speed>3.820000</speed>
</trkpt>
<trkpt lat="32.743095398" lon="35.053237915">
  <ele>500.721191</ele>
  <time>2011-07-04T18:25:17Z</time>
  <speed>3.430000</speed>
</trkpt>
<trkpt lat="32.743526459" lon="35.052768707">
  <ele>491.111816</ele>
  <time>2011-07-04T18:25:35Z</time>
  <speed>2.080000</speed>
</trkpt>
<trkpt lat="32.744026184" lon="35.052932739">
  <ele>475.197754</ele>
  <time>2011-07-04T18:27:10Z</time>
  <speed>1.610000</speed>
</trkpt>
<trkpt lat="32.744747162" lon="35.052833557">
  <ele>464.643066</ele>
  <time>2011-07-04T18:27:29Z</time>
  <speed>0.910000</speed>
</trkpt>
<trkpt lat="32.744541168" lon="35.052913666">
  <ele>460.611816</ele>
  <time>2011-07-04T18:27:38Z</time>
  <speed>2.060000</speed>
</trkpt>
<trkpt lat="32.744537354" lon="35.052967072">
  <ele>459.143066</ele>
  <time>2011-07-04T18:27:40Z</time>
  <speed>1.790000</speed>
</trkpt>
<trkpt lat="32.744747162" lon="35.053230286">
  <ele>449.283691</ele>
  <time>2011-07-04T18:27:50Z</time>
  <speed>1.940000</speed>
</trkpt>
<trkpt lat="32.745086670" lon="35.053199768">
  <ele>445.666504</ele>
  <time>2011-07-04T18:27:56Z</time>
  <speed>5.140000</speed>
</trkpt>
<trkpt lat="32.745403290" lon="35.053298950">
  <ele>445.291504</ele>
  <time>2011-07-04T18:28:02Z</time>
  <speed>2.680000</speed>
</trkpt>
<trkpt lat="32.745292664" lon="35.053462982">
  <ele>439.424316</ele>
  <time>2011-07-04T18:28:08Z</time>
  <speed>3.560000</speed>
</trkpt>
<trkpt lat="32.745071411" lon="35.053611755">
  <ele>433.752441</ele>
  <time>2011-07-04T18:28:17Z</time>
  <speed>2.170000</speed>
</trkpt>
<trkpt lat="32.745067596" lon="35.053779602">
  <ele>430.479004</ele>
  <time>2011-07-04T18:28:22Z</time>
  <speed>3.350000</speed>
</trkpt>
<trkpt lat="32.745216370" lon="35.053974152">
  <ele>423.814941</ele>
  <time>2011-07-04T18:28:32Z</time>
  <speed>0.070000</speed>
</trkpt>
<trkpt lat="32.744991302" lon="35.054615021">
  <ele>423.400879</ele>
  <time>2011-07-04T18:30:19Z</time>
  <speed>4.600000</speed>
</trkpt>
<trkpt lat="32.743698120" lon="35.056064606">
  <ele>408.627441</ele>
  <time>2011-07-04T18:30:47Z</time>
  <speed>6.990000</speed>
</trkpt>
<trkpt lat="32.743129730" lon="35.056438446">
  <ele>403.588379</ele>
  <time>2011-07-04T18:30:57Z</time>
  <speed>6.950000</speed>
</trkpt>
<trkpt lat="32.743061066" lon="35.056552887">
  <ele>401.432129</ele>
  <time>2011-07-04T18:31:00Z</time>
  <speed>2.870000</speed>
</trkpt>
<trkpt lat="32.743095398" lon="35.056625366">
  <ele>401.658691</ele>
  <time>2011-07-04T18:31:03Z</time>
  <speed>2.640000</speed>
</trkpt>
<trkpt lat="32.743553162" lon="35.056640625">
  <ele>397.635254</ele>
  <time>2011-07-04T18:31:14Z</time>
  <speed>6.170000</speed>
</trkpt>
<trkpt lat="32.744190216" lon="35.056514740">
  <ele>394.088379</ele>
  <time>2011-07-04T18:31:22Z</time>
  <speed>9.160000</speed>
</trkpt>
<trkpt lat="32.744739532" lon="35.056312561">
  <ele>390.197754</ele>
  <time>2011-07-04T18:31:28Z</time>
  <speed>9.640000</speed>
</trkpt>
<trkpt lat="32.745391846" lon="35.056247711">
  <ele>389.018066</ele>
  <time>2011-07-04T18:31:35Z</time>
  <speed>9.920001</speed>
</trkpt>
<trkpt lat="32.745998383" lon="35.056045532">
  <ele>382.393066</ele>
  <time>2011-07-04T18:31:42Z</time>
  <speed>9.590000</speed>
</trkpt>
<trkpt lat="32.746654510" lon="35.056087494">
  <ele>379.744629</ele>
  <time>2011-07-04T18:31:50Z</time>
  <speed>7.050000</speed>
</trkpt>
<trkpt lat="32.747619629" lon="35.055706024">
  <ele>382.471191</ele>
  <time>2011-07-04T18:32:05Z</time>
  <speed>5.780000</speed>
</trkpt>
<trkpt lat="32.748966217" lon="35.054553986">
  <ele>380.158691</ele>
  <time>2011-07-04T18:32:41Z</time>
  <speed>5.770000</speed>
</trkpt>
<trkpt lat="32.749671936" lon="35.053573608">
  <ele>382.197754</ele>
  <time>2011-07-04T18:33:01Z</time>
  <speed>6.180000</speed>
</trkpt>
<trkpt lat="32.750152588" lon="35.052719116">
  <ele>382.713379</ele>
  <time>2011-07-04T18:33:16Z</time>
  <speed>7.140000</speed>
</trkpt>
<trkpt lat="32.750549316" lon="35.051460266">
  <ele>381.307129</ele>
  <time>2011-07-04T18:33:32Z</time>
  <speed>7.640000</speed>
</trkpt>
<trkpt lat="32.751918793" lon="35.047313690">
  <ele>360.416504</ele>
  <time>2011-07-04T18:34:26Z</time>
  <speed>7.010000</speed>
</trkpt>
<trkpt lat="32.751937866" lon="35.047039032">
  <ele>357.494629</ele>
  <time>2011-07-04T18:34:31Z</time>
  <speed>3.770000</speed>
</trkpt>
<trkpt lat="32.751792908" lon="35.047008514">
  <ele>359.182129</ele>
  <time>2011-07-04T18:35:18Z</time>
</trkpt>
</trkseg>
</trk>
</gpx>
